sensor_id;sensor_type;location;lat;lon;timestamp;temperature;humidity
3504;DHT22;1766;53.490;10.174;2023-03-23T00:00:52;18.40;44.50
3504;DHT22;1766;53.490;10.174;2023-03-23T00:02:55;18.30;44.50
3504;DHT22;1766;53.490;10.174;2023-03-23T00:04:57;18.30;44.60
3504;DHT22;1766;53.490;10.174;2023-03-23T00:07:01;18.20;44.70
3504;DHT22;1766;53.490;10.174;2023-03-23T00:09:03;18.20;44.80
3504;DHT22;1766;53.490;10.174;2023-03-23T00:11:06;18.10;44.90
3504;DHT22;1766;53.490;10.174;2023-03-23T00:13:08;18.00;45.10
3504;DHT22;1766;53.490;10.174;2023-03-23T00:15:12;18.00;45.10
3504;DHT22;1766;53.490;10.174;2023-03-23T00:17:17;17.90;45.30
3504;DHT22;1766;53.490;10.174;2023-03-23T00:19:19;17.90;45.50
3504;DHT22;1766;53.490;10.174;2023-03-23T00:21:21;17.80;45.60
3504;DHT22;1766;53.490;10.174;2023-03-23T00:23:25;17.80;46.00
3504;DHT22;1766;53.490;10.174;2023-03-23T00:25:29;17.70;46.00
3504;DHT22;1766;53.490;10.174;2023-03-23T00:27:31;17.70;46.20
3504;DHT22;1766;53.490;10.174;2023-03-23T00:29:33;17.70;46.40
3504;DHT22;1766;53.490;10.174;2023-03-23T00:31:36;17.70;46.50
3504;DHT22;1766;53.490;10.174;2023-03-23T00:33:39;17.60;46.60
3504;DHT22;1766;53.490;10.174;2023-03-23T00:35:42;17.60;46.90
3504;DHT22;1766;53.490;10.174;2023-03-23T00:37:44;17.60;47.00
3504;DHT22;1766;53.490;10.174;2023-03-23T00:39:46;17.60;47.30
3504;DHT22;1766;53.490;10.174;2023-03-23T00:41:48;17.50;47.30
3504;DHT22;1766;53.490;10.174;2023-03-23T00:43:50;17.40;48.00
3504;DHT22;1766;53.490;10.174;2023-03-23T00:45:53;17.50;47.80
3504;DHT22;1766;53.490;10.174;2023-03-23T00:47:56;17.40;47.90
3504;DHT22;1766;53.490;10.174;2023-03-23T00:50:02;17.30;48.10
3504;DHT22;1766;53.490;10.174;2023-03-23T00:52:06;17.10;48.60
3504;DHT22;1766;53.490;10.174;2023-03-23T00:54:09;17.40;48.50
3504;DHT22;1766;53.490;10.174;2023-03-23T00:56:12;17.40;48.60
3504;DHT22;1766;53.490;10.174;2023-03-23T00:58:15;17.40;48.80
3504;DHT22;1766;53.490;10.174;2023-03-23T01:00:18;17.40;48.90
3504;DHT22;1766;53.490;10.174;2023-03-23T01:02:20;17.30;48.90
3504;DHT22;1766;53.490;10.174;2023-03-23T01:04:26;17.40;48.90
3504;DHT22;1766;53.490;10.174;2023-03-23T01:06:33;17.30;48.90
3504;DHT22;1766;53.490;10.174;2023-03-23T01:08:40;17.40;49.30
3504;DHT22;1766;53.490;10.174;2023-03-23T01:10:45;17.30;49.30
3504;DHT22;1766;53.490;10.174;2023-03-23T01:12:48;17.30;49.40
3504;DHT22;1766;53.490;10.174;2023-03-23T01:14:50;17.30;49.50
3504;DHT22;1766;53.490;10.174;2023-03-23T01:16:52;17.30;49.70
3504;DHT22;1766;53.490;10.174;2023-03-23T01:18:54;17.30;49.80
3504;DHT22;1766;53.490;10.174;2023-03-23T01:20:57;17.30;50.40
3504;DHT22;1766;53.490;10.174;2023-03-23T01:23:00;17.30;49.90
3504;DHT22;1766;53.490;10.174;2023-03-23T01:25:02;17.30;50.10
3504;DHT22;1766;53.490;10.174;2023-03-23T01:27:04;17.30;50.20
3504;DHT22;1766;53.490;10.174;2023-03-23T01:29:07;17.30;50.20
3504;DHT22;1766;53.490;10.174;2023-03-23T01:31:11;17.30;50.20
3504;DHT22;1766;53.490;10.174;2023-03-23T01:33:14;17.30;50.40
3504;DHT22;1766;53.490;10.174;2023-03-23T01:35:16;17.30;50.40
3504;DHT22;1766;53.490;10.174;2023-03-23T01:37:21;17.40;50.60
3504;DHT22;1766;53.490;10.174;2023-03-23T01:39:26;17.30;50.60
3504;DHT22;1766;53.490;10.174;2023-03-23T01:41:28;17.30;50.60
3504;DHT22;1766;53.490;10.174;2023-03-23T01:43:33;17.30;50.80
3504;DHT22;1766;53.490;10.174;2023-03-23T01:45:36;17.30;50.80
3504;DHT22;1766;53.490;10.174;2023-03-23T01:47:38;17.30;50.80
3504;DHT22;1766;53.490;10.174;2023-03-23T01:49:43;17.30;50.90
3504;DHT22;1766;53.490;10.174;2023-03-23T01:51:49;17.30;51.00
3504;DHT22;1766;53.490;10.174;2023-03-23T01:53:57;17.30;51.00
3504;DHT22;1766;53.490;10.174;2023-03-23T01:56:02;17.40;51.00
3504;DHT22;1766;53.490;10.174;2023-03-23T01:58:05;17.40;51.20
3504;DHT22;1766;53.490;10.174;2023-03-23T02:00:09;17.30;51.20
3504;DHT22;1766;53.490;10.174;2023-03-23T02:02:15;17.30;51.30
3504;DHT22;1766;53.490;10.174;2023-03-23T02:04:17;17.30;51.30
3504;DHT22;1766;53.490;10.174;2023-03-23T02:06:20;17.30;51.50
3504;DHT22;1766;53.490;10.174;2023-03-23T02:08:22;17.20;51.50
3504;DHT22;1766;53.490;10.174;2023-03-23T02:10:25;17.30;51.60
3504;DHT22;1766;53.490;10.174;2023-03-23T02:12:27;17.30;51.70
3504;DHT22;1766;53.490;10.174;2023-03-23T02:14:30;17.30;51.70
3504;DHT22;1766;53.490;10.174;2023-03-23T02:16:37;17.30;51.80
3504;DHT22;1766;53.490;10.174;2023-03-23T02:18:53;17.40;52.10
3504;DHT22;1766;53.490;10.174;2023-03-23T02:21:14;17.30;52.10
3504;DHT22;1766;53.490;10.174;2023-03-23T02:23:44;17.30;52.10
3504;DHT22;1766;53.490;10.174;2023-03-23T02:26:19;17.30;52.10
3504;DHT22;1766;53.490;10.174;2023-03-23T02:28:45;17.40;52.20
3504;DHT22;1766;53.490;10.174;2023-03-23T02:31:06;17.40;52.20
3504;DHT22;1766;53.490;10.174;2023-03-23T02:33:36;17.40;52.20
3504;DHT22;1766;53.490;10.174;2023-03-23T02:35:44;17.40;52.40
3504;DHT22;1766;53.490;10.174;2023-03-23T02:37:51;17.40;52.30
3504;DHT22;1766;53.490;10.174;2023-03-23T02:39:58;17.40;52.40
3504;DHT22;1766;53.490;10.174;2023-03-23T02:42:09;17.40;52.60
3504;DHT22;1766;53.490;10.174;2023-03-23T02:44:13;17.40;52.80
3504;DHT22;1766;53.490;10.174;2023-03-23T02:46:16;17.40;52.80
3504;DHT22;1766;53.490;10.174;2023-03-23T02:48:22;17.40;52.70
3504;DHT22;1766;53.490;10.174;2023-03-23T02:50:28;17.40;53.00
3504;DHT22;1766;53.490;10.174;2023-03-23T02:52:32;17.30;52.90
3504;DHT22;1766;53.490;10.174;2023-03-23T02:54:39;17.40;53.00
3504;DHT22;1766;53.490;10.174;2023-03-23T02:56:43;17.40;53.10
3504;DHT22;1766;53.490;10.174;2023-03-23T02:58:46;17.40;53.10
3504;DHT22;1766;53.490;10.174;2023-03-23T03:00:49;17.40;53.00
3504;DHT22;1766;53.490;10.174;2023-03-23T03:02:52;17.50;53.30
3504;DHT22;1766;53.490;10.174;2023-03-23T03:05:01;17.40;53.40
3504;DHT22;1766;53.490;10.174;2023-03-23T03:07:22;17.40;53.50
3504;DHT22;1766;53.490;10.174;2023-03-23T03:09:33;17.30;53.40
3504;DHT22;1766;53.490;10.174;2023-03-23T03:11:45;17.40;53.50
3504;DHT22;1766;53.490;10.174;2023-03-23T03:13:51;17.50;53.60
3504;DHT22;1766;53.490;10.174;2023-03-23T03:15:58;17.50;53.60
3504;DHT22;1766;53.490;10.174;2023-03-23T03:18:06;17.50;53.60
3504;DHT22;1766;53.490;10.174;2023-03-23T03:20:14;17.50;53.60
3504;DHT22;1766;53.490;10.174;2023-03-23T03:22:19;17.50;53.60
3504;DHT22;1766;53.490;10.174;2023-03-23T03:24:24;17.50;53.60
3504;DHT22;1766;53.490;10.174;2023-03-23T03:26:28;17.50;53.70
3504;DHT22;1766;53.490;10.174;2023-03-23T03:28:32;17.50;53.70
3504;DHT22;1766;53.490;10.174;2023-03-23T03:30:35;17.50;53.70
3504;DHT22;1766;53.490;10.174;2023-03-23T03:32:41;17.50;53.70
3504;DHT22;1766;53.490;10.174;2023-03-23T03:34:47;17.50;53.70
3504;DHT22;1766;53.490;10.174;2023-03-23T03:36:51;17.60;53.70
3504;DHT22;1766;53.490;10.174;2023-03-23T03:39:01;17.60;53.80
3504;DHT22;1766;53.490;10.174;2023-03-23T03:41:07;17.60;53.70
3504;DHT22;1766;53.490;10.174;2023-03-23T03:43:08;17.60;53.60
3504;DHT22;1766;53.490;10.174;2023-03-23T03:45:13;17.60;53.60
3504;DHT22;1766;53.490;10.174;2023-03-23T03:47:16;17.70;53.80
3504;DHT22;1766;53.490;10.174;2023-03-23T03:49:17;17.60;53.60
3504;DHT22;1766;53.490;10.174;2023-03-23T03:51:19;17.60;53.70
3504;DHT22;1766;53.490;10.174;2023-03-23T03:53:21;17.60;53.70
3504;DHT22;1766;53.490;10.174;2023-03-23T03:55:24;17.60;53.80
3504;DHT22;1766;53.490;10.174;2023-03-23T03:57:28;17.60;53.70
3504;DHT22;1766;53.490;10.174;2023-03-23T03:59:30;17.60;53.80
3504;DHT22;1766;53.490;10.174;2023-03-23T04:01:33;17.60;53.70
3504;DHT22;1766;53.490;10.174;2023-03-23T04:03:35;17.60;53.90
3504;DHT22;1766;53.490;10.174;2023-03-23T04:05:37;17.60;53.80
3504;DHT22;1766;53.490;10.174;2023-03-23T04:07:39;17.60;53.90
3504;DHT22;1766;53.490;10.174;2023-03-23T04:09:42;17.60;54.00
3504;DHT22;1766;53.490;10.174;2023-03-23T04:11:47;17.60;53.90
3504;DHT22;1766;53.490;10.174;2023-03-23T04:13:49;17.60;54.00
3504;DHT22;1766;53.490;10.174;2023-03-23T04:15:51;17.70;54.10
3504;DHT22;1766;53.490;10.174;2023-03-23T04:17:53;17.70;54.10
3504;DHT22;1766;53.490;10.174;2023-03-23T04:19:57;17.60;54.00
3504;DHT22;1766;53.490;10.174;2023-03-23T04:22:00;17.70;54.10
3504;DHT22;1766;53.490;10.174;2023-03-23T04:24:02;17.70;54.10
3504;DHT22;1766;53.490;10.174;2023-03-23T04:26:04;17.70;54.10
3504;DHT22;1766;53.490;10.174;2023-03-23T04:28:08;17.70;54.00
3504;DHT22;1766;53.490;10.174;2023-03-23T04:30:12;17.70;54.00
3504;DHT22;1766;53.490;10.174;2023-03-23T04:32:14;17.70;54.10
3504;DHT22;1766;53.490;10.174;2023-03-23T04:34:18;17.70;54.10
3504;DHT22;1766;53.490;10.174;2023-03-23T04:36:20;17.70;54.10
3504;DHT22;1766;53.490;10.174;2023-03-23T04:38:24;17.70;54.00
3504;DHT22;1766;53.490;10.174;2023-03-23T04:40:26;17.70;54.00
3504;DHT22;1766;53.490;10.174;2023-03-23T04:42:29;17.70;54.10
3504;DHT22;1766;53.490;10.174;2023-03-23T04:44:34;17.80;54.30
3504;DHT22;1766;53.490;10.174;2023-03-23T04:46:36;17.80;54.30
3504;DHT22;1766;53.490;10.174;2023-03-23T04:48:39;17.80;54.10
3504;DHT22;1766;53.490;10.174;2023-03-23T04:50:41;17.80;54.20
3504;DHT22;1766;53.490;10.174;2023-03-23T04:52:43;17.80;54.20
3504;DHT22;1766;53.490;10.174;2023-03-23T04:54:46;17.80;54.30
3504;DHT22;1766;53.490;10.174;2023-03-23T04:56:48;17.90;54.30
3504;DHT22;1766;53.490;10.174;2023-03-23T04:58:50;17.90;54.30
3504;DHT22;1766;53.490;10.174;2023-03-23T05:00:53;17.90;54.20
3504;DHT22;1766;53.490;10.174;2023-03-23T05:02:55;18.00;54.30
3504;DHT22;1766;53.490;10.174;2023-03-23T05:04:57;18.00;54.20
3504;DHT22;1766;53.490;10.174;2023-03-23T05:06:59;18.00;54.10
3504;DHT22;1766;53.490;10.174;2023-03-23T05:09:01;18.00;54.10
3504;DHT22;1766;53.490;10.174;2023-03-23T05:11:04;18.10;54.20
3504;DHT22;1766;53.490;10.174;2023-03-23T05:13:06;18.10;54.20
3504;DHT22;1766;53.490;10.174;2023-03-23T05:15:09;18.10;54.00
3504;DHT22;1766;53.490;10.174;2023-03-23T05:17:14;18.10;53.90
3504;DHT22;1766;53.490;10.174;2023-03-23T05:19:19;18.10;53.90
3504;DHT22;1766;53.490;10.174;2023-03-23T05:21:20;18.00;53.70
3504;DHT22;1766;53.490;10.174;2023-03-23T05:23:22;18.00;53.70
3504;DHT22;1766;53.490;10.174;2023-03-23T05:25:25;18.00;53.70
3504;DHT22;1766;53.490;10.174;2023-03-23T05:27:27;18.10;53.70
3504;DHT22;1766;53.490;10.174;2023-03-23T05:29:30;18.00;53.60
3504;DHT22;1766;53.490;10.174;2023-03-23T05:31:32;18.10;53.90
3504;DHT22;1766;53.490;10.174;2023-03-23T05:33:35;18.10;53.60
3504;DHT22;1766;53.490;10.174;2023-03-23T05:35:38;18.10;53.60
3504;DHT22;1766;53.490;10.174;2023-03-23T05:37:41;18.10;53.60
3504;DHT22;1766;53.490;10.174;2023-03-23T05:39:43;18.10;53.60
3504;DHT22;1766;53.490;10.174;2023-03-23T05:41:45;18.00;53.50
3504;DHT22;1766;53.490;10.174;2023-03-23T05:43:47;18.10;53.50
3504;DHT22;1766;53.490;10.174;2023-03-23T05:45:49;18.00;53.20
3504;DHT22;1766;53.490;10.174;2023-03-23T05:47:50;18.10;53.40
3504;DHT22;1766;53.490;10.174;2023-03-23T05:49:53;18.10;53.50
3504;DHT22;1766;53.490;10.174;2023-03-23T05:51:55;18.10;53.50
3504;DHT22;1766;53.490;10.174;2023-03-23T05:53:57;18.10;53.40
3504;DHT22;1766;53.490;10.174;2023-03-23T05:55:59;18.10;53.40
3504;DHT22;1766;53.490;10.174;2023-03-23T05:58:02;18.10;53.40
3504;DHT22;1766;53.490;10.174;2023-03-23T06:00:05;18.20;53.60
3504;DHT22;1766;53.490;10.174;2023-03-23T06:02:16;18.00;53.60
3504;DHT22;1766;53.490;10.174;2023-03-23T06:04:17;18.00;53.50
3504;DHT22;1766;53.490;10.174;2023-03-23T06:06:21;18.10;53.60
3504;DHT22;1766;53.490;10.174;2023-03-23T06:08:22;18.10;53.40
3504;DHT22;1766;53.490;10.174;2023-03-23T06:10:25;18.10;53.40
3504;DHT22;1766;53.490;10.174;2023-03-23T06:12:27;18.10;53.40
3504;DHT22;1766;53.490;10.174;2023-03-23T06:14:29;18.00;53.10
3504;DHT22;1766;53.490;10.174;2023-03-23T06:16:31;18.10;53.30
3504;DHT22;1766;53.490;10.174;2023-03-23T06:18:33;18.10;53.20
3504;DHT22;1766;53.490;10.174;2023-03-23T06:20:37;18.10;53.10
3504;DHT22;1766;53.490;10.174;2023-03-23T06:22:40;18.00;53.10
3504;DHT22;1766;53.490;10.174;2023-03-23T06:24:42;18.00;53.10
3504;DHT22;1766;53.490;10.174;2023-03-23T06:26:45;18.10;53.20
3504;DHT22;1766;53.490;10.174;2023-03-23T06:28:47;18.10;53.10
3504;DHT22;1766;53.490;10.174;2023-03-23T06:30:49;18.10;53.10
3504;DHT22;1766;53.490;10.174;2023-03-23T06:32:51;18.00;52.90
3504;DHT22;1766;53.490;10.174;2023-03-23T06:34:53;18.00;52.90
3504;DHT22;1766;53.490;10.174;2023-03-23T06:36:58;18.00;52.90
3504;DHT22;1766;53.490;10.174;2023-03-23T06:39:02;18.00;52.90
3504;DHT22;1766;53.490;10.174;2023-03-23T06:41:05;18.00;53.00
3504;DHT22;1766;53.490;10.174;2023-03-23T06:43:07;18.00;52.80
3504;DHT22;1766;53.490;10.174;2023-03-23T06:45:10;18.10;53.00
3504;DHT22;1766;53.490;10.174;2023-03-23T06:47:12;18.10;53.10
3504;DHT22;1766;53.490;10.174;2023-03-23T06:49:14;18.10;53.00
3504;DHT22;1766;53.490;10.174;2023-03-23T06:51:16;18.10;53.10
3504;DHT22;1766;53.490;10.174;2023-03-23T06:53:18;18.00;53.00
3504;DHT22;1766;53.490;10.174;2023-03-23T06:55:22;18.10;53.30
3504;DHT22;1766;53.490;10.174;2023-03-23T06:57:24;18.20;53.30
3504;DHT22;1766;53.490;10.174;2023-03-23T06:59:26;18.20;53.20
3504;DHT22;1766;53.490;10.174;2023-03-23T07:01:28;18.30;53.30
3504;DHT22;1766;53.490;10.174;2023-03-23T07:03:30;18.30;53.20
3504;DHT22;1766;53.490;10.174;2023-03-23T07:05:32;18.30;53.10
3504;DHT22;1766;53.490;10.174;2023-03-23T07:07:35;18.30;53.10
3504;DHT22;1766;53.490;10.174;2023-03-23T07:09:37;18.40;53.10
3504;DHT22;1766;53.490;10.174;2023-03-23T07:11:40;18.40;53.00
3504;DHT22;1766;53.490;10.174;2023-03-23T07:13:42;18.50;53.00
3504;DHT22;1766;53.490;10.174;2023-03-23T07:15:45;18.60;53.00
3504;DHT22;1766;53.490;10.174;2023-03-23T07:17:47;18.60;52.90
3504;DHT22;1766;53.490;10.174;2023-03-23T07:19:49;18.60;52.70
3504;DHT22;1766;53.490;10.174;2023-03-23T07:21:51;18.70;52.80
3504;DHT22;1766;53.490;10.174;2023-03-23T07:23:53;18.80;52.70
3504;DHT22;1766;53.490;10.174;2023-03-23T07:25:55;18.80;52.70
3504;DHT22;1766;53.490;10.174;2023-03-23T07:27:58;18.80;52.60
3504;DHT22;1766;53.490;10.174;2023-03-23T07:30:00;18.80;52.40
3504;DHT22;1766;53.490;10.174;2023-03-23T07:32:02;18.90;52.40
3504;DHT22;1766;53.490;10.174;2023-03-23T07:34:05;18.90;52.40
3504;DHT22;1766;53.490;10.174;2023-03-23T07:36:08;18.90;52.30
3504;DHT22;1766;53.490;10.174;2023-03-23T07:38:10;19.00;52.40
3504;DHT22;1766;53.490;10.174;2023-03-23T07:40:13;19.00;52.10
3504;DHT22;1766;53.490;10.174;2023-03-23T07:42:15;19.10;52.20
3504;DHT22;1766;53.490;10.174;2023-03-23T07:44:18;19.10;52.00
3504;DHT22;1766;53.490;10.174;2023-03-23T07:46:20;19.10;51.90
3504;DHT22;1766;53.490;10.174;2023-03-23T07:48:22;19.20;51.70
3504;DHT22;1766;53.490;10.174;2023-03-23T07:50:24;19.20;51.60
3504;DHT22;1766;53.490;10.174;2023-03-23T07:52:26;19.20;51.50
3504;DHT22;1766;53.490;10.174;2023-03-23T07:54:28;19.30;51.50
3504;DHT22;1766;53.490;10.174;2023-03-23T07:56:31;19.30;51.50
3504;DHT22;1766;53.490;10.174;2023-03-23T07:58:33;19.30;51.40
3504;DHT22;1766;53.490;10.174;2023-03-23T08:00:36;19.30;51.20
3504;DHT22;1766;53.490;10.174;2023-03-23T08:02:39;19.40;51.20
3504;DHT22;1766;53.490;10.174;2023-03-23T08:04:42;19.40;51.10
3504;DHT22;1766;53.490;10.174;2023-03-23T08:06:45;19.40;51.00
3504;DHT22;1766;53.490;10.174;2023-03-23T08:08:47;19.40;50.90
3504;DHT22;1766;53.490;10.174;2023-03-23T08:10:49;19.40;50.90
3504;DHT22;1766;53.490;10.174;2023-03-23T08:12:53;19.50;50.80
3504;DHT22;1766;53.490;10.174;2023-03-23T08:14:56;19.50;50.70
3504;DHT22;1766;53.490;10.174;2023-03-23T08:17:01;19.50;50.40
3504;DHT22;1766;53.490;10.174;2023-03-23T08:19:02;19.60;50.40
3504;DHT22;1766;53.490;10.174;2023-03-23T08:21:06;19.60;50.30
3504;DHT22;1766;53.490;10.174;2023-03-23T08:23:10;19.60;50.10
3504;DHT22;1766;53.490;10.174;2023-03-23T08:25:13;19.50;49.90
3504;DHT22;1766;53.490;10.174;2023-03-23T08:27:17;19.40;49.60
3504;DHT22;1766;53.490;10.174;2023-03-23T08:29:19;19.40;49.50
3504;DHT22;1766;53.490;10.174;2023-03-23T08:31:21;19.30;49.60
3504;DHT22;1766;53.490;10.174;2023-03-23T08:33:24;19.20;49.60
3504;DHT22;1766;53.490;10.174;2023-03-23T08:35:26;19.10;49.60
3504;DHT22;1766;53.490;10.174;2023-03-23T08:37:28;19.10;49.70
3504;DHT22;1766;53.490;10.174;2023-03-23T08:39:31;19.00;49.90
3504;DHT22;1766;53.490;10.174;2023-03-23T08:41:34;19.00;49.90
3504;DHT22;1766;53.490;10.174;2023-03-23T08:43:36;18.80;49.70
3504;DHT22;1766;53.490;10.174;2023-03-23T08:45:38;18.80;50.00
3504;DHT22;1766;53.490;10.174;2023-03-23T08:47:40;18.60;50.20
3504;DHT22;1766;53.490;10.174;2023-03-23T08:49:43;18.50;50.60
3504;DHT22;1766;53.490;10.174;2023-03-23T08:51:46;18.40;50.50
3504;DHT22;1766;53.490;10.174;2023-03-23T08:53:48;18.40;50.30
3504;DHT22;1766;53.490;10.174;2023-03-23T08:55:50;18.30;50.40
3504;DHT22;1766;53.490;10.174;2023-03-23T08:57:52;18.30;50.40
3504;DHT22;1766;53.490;10.174;2023-03-23T08:59:54;18.30;50.50
3504;DHT22;1766;53.490;10.174;2023-03-23T09:02:00;18.20;50.10
3504;DHT22;1766;53.490;10.174;2023-03-23T09:04:02;18.30;49.80
3504;DHT22;1766;53.490;10.174;2023-03-23T09:06:08;18.40;49.70
3504;DHT22;1766;53.490;10.174;2023-03-23T09:08:13;18.40;49.60
3504;DHT22;1766;53.490;10.174;2023-03-23T09:10:15;18.50;49.50
3504;DHT22;1766;53.490;10.174;2023-03-23T09:12:33;18.60;49.40
3504;DHT22;1766;53.490;10.174;2023-03-23T09:14:36;18.60;49.00
3504;DHT22;1766;53.490;10.174;2023-03-23T09:16:38;18.80;49.60
3504;DHT22;1766;53.490;10.174;2023-03-23T09:18:40;18.80;48.90
3504;DHT22;1766;53.490;10.174;2023-03-23T09:20:42;18.80;48.30
3504;DHT22;1766;53.490;10.174;2023-03-23T09:22:47;18.90;48.00
3504;DHT22;1766;53.490;10.174;2023-03-23T09:24:50;18.90;47.80
3504;DHT22;1766;53.490;10.174;2023-03-23T09:26:52;19.00;47.70
3504;DHT22;1766;53.490;10.174;2023-03-23T09:28:54;19.20;47.80
3504;DHT22;1766;53.490;10.174;2023-03-23T09:30:57;19.20;47.40
3504;DHT22;1766;53.490;10.174;2023-03-23T09:33:00;19.10;47.10
3504;DHT22;1766;53.490;10.174;2023-03-23T09:35:04;19.20;47.10
3504;DHT22;1766;53.490;10.174;2023-03-23T09:37:08;19.20;47.00
3504;DHT22;1766;53.490;10.174;2023-03-23T09:39:15;19.20;46.80
3504;DHT22;1766;53.490;10.174;2023-03-23T09:41:41;19.20;47.00
3504;DHT22;1766;53.490;10.174;2023-03-23T09:44:01;19.20;46.90
3504;DHT22;1766;53.490;10.174;2023-03-23T09:46:18;19.20;47.30
3504;DHT22;1766;53.490;10.174;2023-03-23T09:48:41;19.40;46.90
3504;DHT22;1766;53.490;10.174;2023-03-23T09:50:51;19.50;46.90
3504;DHT22;1766;53.490;10.174;2023-03-23T09:52:57;19.70;46.60
3504;DHT22;1766;53.490;10.174;2023-03-23T09:55:02;19.70;46.20
3504;DHT22;1766;53.490;10.174;2023-03-23T09:57:19;19.80;46.20
3504;DHT22;1766;53.490;10.174;2023-03-23T09:59:27;19.80;46.00
3504;DHT22;1766;53.490;10.174;2023-03-23T10:01:35;19.90;45.90
3504;DHT22;1766;53.490;10.174;2023-03-23T10:03:41;19.90;45.80
3504;DHT22;1766;53.490;10.174;2023-03-23T10:05:45;20.00;45.60
3504;DHT22;1766;53.490;10.174;2023-03-23T10:07:49;20.00;45.30
3504;DHT22;1766;53.490;10.174;2023-03-23T10:09:53;20.00;44.90
3504;DHT22;1766;53.490;10.174;2023-03-23T10:12:23;20.00;44.80
3504;DHT22;1766;53.490;10.174;2023-03-23T10:14:37;20.10;44.70
3504;DHT22;1766;53.490;10.174;2023-03-23T10:16:54;20.20;44.80
3504;DHT22;1766;53.490;10.174;2023-03-23T10:19:07;20.20;44.70
3504;DHT22;1766;53.490;10.174;2023-03-23T10:21:16;20.30;44.80
3504;DHT22;1766;53.490;10.174;2023-03-23T10:23:36;20.40;44.70
3504;DHT22;1766;53.490;10.174;2023-03-23T10:25:51;20.40;44.50
3504;DHT22;1766;53.490;10.174;2023-03-23T10:28:01;20.40;44.10
3504;DHT22;1766;53.490;10.174;2023-03-23T10:30:14;20.40;44.10
3504;DHT22;1766;53.490;10.174;2023-03-23T10:32:21;20.40;43.90
3504;DHT22;1766;53.490;10.174;2023-03-23T10:34:42;20.40;43.70
3504;DHT22;1766;53.490;10.174;2023-03-23T10:36:55;20.40;43.70
3504;DHT22;1766;53.490;10.174;2023-03-23T10:39:05;20.40;43.70
3504;DHT22;1766;53.490;10.174;2023-03-23T10:41:13;20.40;43.60
3504;DHT22;1766;53.490;10.174;2023-03-23T10:43:18;20.50;43.70
3504;DHT22;1766;53.490;10.174;2023-03-23T10:45:22;20.50;43.50
3504;DHT22;1766;53.490;10.174;2023-03-23T10:47:27;20.60;43.60
3504;DHT22;1766;53.490;10.174;2023-03-23T10:49:33;20.60;43.20
3504;DHT22;1766;53.490;10.174;2023-03-23T10:51:44;20.60;43.20
3504;DHT22;1766;53.490;10.174;2023-03-23T10:53:51;20.60;42.80
3504;DHT22;1766;53.490;10.174;2023-03-23T10:55:58;20.60;43.00
3504;DHT22;1766;53.490;10.174;2023-03-23T10:58:02;20.60;43.00
3504;DHT22;1766;53.490;10.174;2023-03-23T11:00:16;20.60;43.10
3504;DHT22;1766;53.490;10.174;2023-03-23T11:02:20;20.70;43.20
3504;DHT22;1766;53.490;10.174;2023-03-23T11:04:25;20.80;43.10
3504;DHT22;1766;53.490;10.174;2023-03-23T11:06:29;20.80;42.70
3504;DHT22;1766;53.490;10.174;2023-03-23T11:08:35;20.80;42.60
3504;DHT22;1766;53.490;10.174;2023-03-23T11:10:41;20.70;42.60
3504;DHT22;1766;53.490;10.174;2023-03-23T11:12:45;20.80;42.30
3504;DHT22;1766;53.490;10.174;2023-03-23T11:14:48;20.70;42.30
3504;DHT22;1766;53.490;10.174;2023-03-23T11:16:52;20.70;42.40
3504;DHT22;1766;53.490;10.174;2023-03-23T11:18:56;20.70;42.50
3504;DHT22;1766;53.490;10.174;2023-03-23T11:20:59;20.70;42.40
3504;DHT22;1766;53.490;10.174;2023-03-23T11:23:00;20.70;42.40
3504;DHT22;1766;53.490;10.174;2023-03-23T11:25:05;20.80;42.70
3504;DHT22;1766;53.490;10.174;2023-03-23T11:27:08;20.70;42.40
3504;DHT22;1766;53.490;10.174;2023-03-23T11:29:14;20.70;42.40
3504;DHT22;1766;53.490;10.174;2023-03-23T11:31:21;20.60;42.50
3504;DHT22;1766;53.490;10.174;2023-03-23T11:33:28;20.60;42.60
3504;DHT22;1766;53.490;10.174;2023-03-23T11:35:31;20.60;42.70
3504;DHT22;1766;53.490;10.174;2023-03-23T11:37:35;20.60;42.60
3504;DHT22;1766;53.490;10.174;2023-03-23T11:39:47;20.60;42.60
3504;DHT22;1766;53.490;10.174;2023-03-23T11:41:50;20.60;42.80
3504;DHT22;1766;53.490;10.174;2023-03-23T11:43:53;20.60;42.80
3504;DHT22;1766;53.490;10.174;2023-03-23T11:46:02;20.70;42.90
3504;DHT22;1766;53.490;10.174;2023-03-23T11:48:13;20.70;42.90
3504;DHT22;1766;53.490;10.174;2023-03-23T11:50:24;20.70;42.70
3504;DHT22;1766;53.490;10.174;2023-03-23T11:52:33;20.70;42.80
3504;DHT22;1766;53.490;10.174;2023-03-23T11:54:46;20.70;42.90
3504;DHT22;1766;53.490;10.174;2023-03-23T11:56:49;20.80;43.10
3504;DHT22;1766;53.490;10.174;2023-03-23T11:58:53;20.90;42.90
3504;DHT22;1766;53.490;10.174;2023-03-23T12:00:57;20.90;43.00
3504;DHT22;1766;53.490;10.174;2023-03-23T12:05:34;20.90;42.90
3504;DHT22;1766;53.490;10.174;2023-03-23T12:07:50;20.80;42.80
3504;DHT22;1766;53.490;10.174;2023-03-23T12:10:04;20.80;42.90
3504;DHT22;1766;53.490;10.174;2023-03-23T12:12:25;20.80;42.90
3504;DHT22;1766;53.490;10.174;2023-03-23T12:14:38;20.80;43.00
3504;DHT22;1766;53.490;10.174;2023-03-23T12:16:53;20.80;43.10
3504;DHT22;1766;53.490;10.174;2023-03-23T12:19:08;20.80;43.30
3504;DHT22;1766;53.490;10.174;2023-03-23T12:21:24;20.90;43.50
3504;DHT22;1766;53.490;10.174;2023-03-23T12:23:35;20.90;43.20
3504;DHT22;1766;53.490;10.174;2023-03-23T12:25:52;20.90;43.10
3504;DHT22;1766;53.490;10.174;2023-03-23T12:28:03;20.80;43.10
3504;DHT22;1766;53.490;10.174;2023-03-23T12:30:19;20.80;43.00
3504;DHT22;1766;53.490;10.174;2023-03-23T12:32:38;20.70;43.10
3504;DHT22;1766;53.490;10.174;2023-03-23T12:34:49;20.60;43.00
3504;DHT22;1766;53.490;10.174;2023-03-23T12:37:04;20.50;43.00
3504;DHT22;1766;53.490;10.174;2023-03-23T12:39:34;20.40;43.20
3504;DHT22;1766;53.490;10.174;2023-03-23T12:41:50;20.30;43.30
3504;DHT22;1766;53.490;10.174;2023-03-23T12:43:58;20.40;43.40
3504;DHT22;1766;53.490;10.174;2023-03-23T12:46:20;20.40;43.50
3504;DHT22;1766;53.490;10.174;2023-03-23T12:48:31;20.50;43.70
3504;DHT22;1766;53.490;10.174;2023-03-23T12:50:38;20.60;43.60
3504;DHT22;1766;53.490;10.174;2023-03-23T12:52:48;20.70;43.80
3504;DHT22;1766;53.490;10.174;2023-03-23T12:54:56;20.80;43.80
3504;DHT22;1766;53.490;10.174;2023-03-23T12:57:07;20.90;43.70
3504;DHT22;1766;53.490;10.174;2023-03-23T12:59:17;21.00;43.70
3504;DHT22;1766;53.490;10.174;2023-03-23T13:01:24;21.00;43.60
3504;DHT22;1766;53.490;10.174;2023-03-23T13:03:32;21.10;43.20
3504;DHT22;1766;53.490;10.174;2023-03-23T13:05:40;21.00;42.90
3504;DHT22;1766;53.490;10.174;2023-03-23T13:07:49;21.00;43.00
3504;DHT22;1766;53.490;10.174;2023-03-23T13:10:01;21.00;43.10
3504;DHT22;1766;53.490;10.174;2023-03-23T13:12:12;21.30;43.80
3504;DHT22;1766;53.490;10.174;2023-03-23T13:14:23;22.10;43.80
3504;DHT22;1766;53.490;10.174;2023-03-23T13:16:34;22.80;43.60
3504;DHT22;1766;53.490;10.174;2023-03-23T13:18:44;23.60;42.70
3504;DHT22;1766;53.490;10.174;2023-03-23T13:20:56;23.90;41.20
3504;DHT22;1766;53.490;10.174;2023-03-23T13:23:09;23.90;41.00
3504;DHT22;1766;53.490;10.174;2023-03-23T13:25:16;23.90;40.60
3504;DHT22;1766;53.490;10.174;2023-03-23T13:27:23;23.70;39.60